Aérodrome :
LOGIN :

S'inscrire | Disclaimer

   EN    FR    IT 

 










Légende :    VFR   VFR Marginal   IFR   IFR Intensif   IFR Très Intensif
Visi : 
Plafond : 
>= 8 km
>= 3000ft
5 à 8 km
1000 à 3000 ft
1500m à 5 km
500 à 1000 ft
800 à 1500m
200 à 500 ft
< 800m
< 200 ft
Symboles :   Orages  Brouillard  Fortes neiges  Fortes précipitations  Vent > 20 kt
SIGMETs :   Divers  Orages  Givrage  Turbulence  Onde Orograph.  Cendres Volcan.






- Altitude de l'aérodrome : 404 ft
- Code IATA : ECN


LCEN - Ercan International

DERNIER METAR :
  • 231520Z 14006KT 9999 FEW025 17/10 Q1020 NOSIG RMK RWY11 15007KT

METARs EXPIRÉS :
  • 231450Z 12006KT 9999 FEW025 18/10 Q1020 NOSIG RMK RWY11 13007KT
  • 231420Z 11007KT 9999 FEW025 20/10 Q1020 NOSIG RMK RWY11 12008KT
  • 231350Z 09005KT 050V110 9999 FEW025 21/09 Q1020 NOSIG RMK RWY11 08004KT 020V130
  • 231320Z 01005KT 320V050 9999 FEW025 22/09 Q1020 NOSIG RMK RWY11 06005KT 030V110
  • 231250Z 02005KT 320V060 9999 FEW025 22/09 Q1020 NOSIG RMK RWY11 00000KT

TAF TAF LCEN
Valide du 23 à 06h jusqu'au 24 à 06h UTC


230440Z 2306/2406 08012KT 9999 FEW025



MET'MAP, la Météo Aéronautique d'un coup d'oeil ! - Copyright ORBIFLY Décembre 2007 - Disclaimer

ORBIFLY MET'MAP TEAM :

Programmation & Développement : Alexandra Zaïnal
Sur une idée originale de : Baudouin d'Aumeries
Assistance à la programmation : Marc-Olivier Méhu
Soutien technique & logistique : Manuel Goepfert

Contact : metmap@orbifly.com




SOURCES & CREDITS :

   NOAA